sensor_id;sensor_type;location;lat;lon;timestamp;P1;durP1;ratioP1;P2;durP2;ratioP2
9904;SDS011;4991;43.566;27.820;2022-11-10T00:00:44;11.87;;;7.67;;
9904;SDS011;4991;43.566;27.820;2022-11-10T00:03:09;8.57;;;6.50;;
9904;SDS011;4991;43.566;27.820;2022-11-10T00:05:36;11.07;;;6.40;;
9904;SDS011;4991;43.566;27.820;2022-11-10T00:08:03;7.80;;;5.87;;
9904;SDS011;4991;43.566;27.820;2022-11-10T00:10:30;12.33;;;6.60;;
9904;SDS011;4991;43.566;27.820;2022-11-10T00:13:00;8.63;;;6.10;;
9904;SDS011;4991;43.566;27.820;2022-11-10T00:15:26;9.27;;;6.07;;
9904;SDS011;4991;43.566;27.820;2022-11-10T00:18:10;7.73;;;6.13;;
9904;SDS011;4991;43.566;27.820;2022-11-10T00:20:36;8.43;;;5.90;;
9904;SDS011;4991;43.566;27.820;2022-11-10T00:23:01;9.87;;;6.97;;
9904;SDS011;4991;43.566;27.820;2022-11-10T00:25:27;9.90;;;6.90;;
9904;SDS011;4991;43.566;27.820;2022-11-10T00:27:53;10.60;;;6.97;;
9904;SDS011;4991;43.566;27.820;2022-11-10T00:30:18;9.97;;;6.70;;
9904;SDS011;4991;43.566;27.820;2022-11-10T00:32:45;10.60;;;6.73;;
9904;SDS011;4991;43.566;27.820;2022-11-10T00:35:11;10.57;;;7.37;;
9904;SDS011;4991;43.566;27.820;2022-11-10T00:37:37;9.83;;;6.40;;
9904;SDS011;4991;43.566;27.820;2022-11-10T00:40:03;10.10;;;7.10;;
9904;SDS011;4991;43.566;27.820;2022-11-10T00:42:29;9.40;;;7.07;;
9904;SDS011;4991;43.566;27.820;2022-11-10T00:44:54;11.07;;;7.53;;
9904;SDS011;4991;43.566;27.820;2022-11-10T00:47:20;12.03;;;7.67;;
9904;SDS011;4991;43.566;27.820;2022-11-10T00:49:45;11.67;;;7.40;;
9904;SDS011;4991;43.566;27.820;2022-11-10T00:52:11;11.47;;;7.53;;
9904;SDS011;4991;43.566;27.820;2022-11-10T00:54:37;11.03;;;7.70;;
9904;SDS011;4991;43.566;27.820;2022-11-10T00:57:03;9.60;;;6.97;;
9904;SDS011;4991;43.566;27.820;2022-11-10T00:59:28;9.87;;;7.07;;
9904;SDS011;4991;43.566;27.820;2022-11-10T01:01:54;9.17;;;7.00;;
9904;SDS011;4991;43.566;27.820;2022-11-10T01:04:19;7.90;;;6.30;;
9904;SDS011;4991;43.566;27.820;2022-11-10T01:06:45;14.10;;;7.97;;
9904;SDS011;4991;43.566;27.820;2022-11-10T01:09:12;22.90;;;14.50;;
9904;SDS011;4991;43.566;27.820;2022-11-10T01:11:38;20.00;;;11.57;;
9904;SDS011;4991;43.566;27.820;2022-11-10T01:14:04;31.43;;;16.77;;
9904;SDS011;4991;43.566;27.820;2022-11-10T01:16:30;30.83;;;18.33;;
9904;SDS011;4991;43.566;27.820;2022-11-10T01:18:59;24.37;;;16.83;;
9904;SDS011;4991;43.566;27.820;2022-11-10T01:21:27;27.63;;;17.80;;
9904;SDS011;4991;43.566;27.820;2022-11-10T01:23:54;22.50;;;17.17;;
9904;SDS011;4991;43.566;27.820;2022-11-10T01:26:20;25.40;;;18.03;;
9904;SDS011;4991;43.566;27.820;2022-11-10T01:28:47;26.67;;;16.10;;
9904;SDS011;4991;43.566;27.820;2022-11-10T01:31:14;24.57;;;13.13;;
9904;SDS011;4991;43.566;27.820;2022-11-10T01:33:41;17.97;;;11.53;;
9904;SDS011;4991;43.566;27.820;2022-11-10T01:36:07;18.90;;;12.63;;
9904;SDS011;4991;43.566;27.820;2022-11-10T01:38:35;15.47;;;10.70;;
9904;SDS011;4991;43.566;27.820;2022-11-10T01:41:02;15.20;;;10.80;;
9904;SDS011;4991;43.566;27.820;2022-11-10T01:43:30;16.13;;;10.67;;
9904;SDS011;4991;43.566;27.820;2022-11-10T01:46:00;18.30;;;11.03;;
9904;SDS011;4991;43.566;27.820;2022-11-10T01:48:46;14.97;;;10.20;;
9904;SDS011;4991;43.566;27.820;2022-11-10T01:53:51;16.33;;;10.83;;
9904;SDS011;4991;43.566;27.820;2022-11-10T01:56:20;18.47;;;10.67;;
9904;SDS011;4991;43.566;27.820;2022-11-10T01:58:51;16.00;;;10.60;;
9904;SDS011;4991;43.566;27.820;2022-11-10T02:01:21;17.00;;;10.60;;
9904;SDS011;4991;43.566;27.820;2022-11-10T02:03:49;18.00;;;10.10;;
9904;SDS011;4991;43.566;27.820;2022-11-10T02:06:18;17.23;;;11.00;;
9904;SDS011;4991;43.566;27.820;2022-11-10T02:08:46;14.30;;;9.80;;
9904;SDS011;4991;43.566;27.820;2022-11-10T02:11:12;13.40;;;9.90;;
9904;SDS011;4991;43.566;27.820;2022-11-10T02:13:39;15.30;;;8.93;;
9904;SDS011;4991;43.566;27.820;2022-11-10T02:16:04;16.37;;;9.63;;
9904;SDS011;4991;43.566;27.820;2022-11-10T02:18:30;14.33;;;9.67;;
9904;SDS011;4991;43.566;27.820;2022-11-10T02:20:56;15.10;;;9.57;;
9904;SDS011;4991;43.566;27.820;2022-11-10T02:26:00;16.97;;;10.53;;
9904;SDS011;4991;43.566;27.820;2022-11-10T02:28:32;14.87;;;10.80;;
9904;SDS011;4991;43.566;27.820;2022-11-10T02:30:59;13.77;;;9.07;;
9904;SDS011;4991;43.566;27.820;2022-11-10T02:33:25;16.13;;;9.57;;
9904;SDS011;4991;43.566;27.820;2022-11-10T02:35:51;12.57;;;9.13;;
9904;SDS011;4991;43.566;27.820;2022-11-10T02:38:17;17.70;;;10.33;;
9904;SDS011;4991;43.566;27.820;2022-11-10T02:40:42;12.97;;;9.03;;
9904;SDS011;4991;43.566;27.820;2022-11-10T02:43:10;14.07;;;9.40;;
9904;SDS011;4991;43.566;27.820;2022-11-10T02:45:37;20.00;;;9.20;;
9904;SDS011;4991;43.566;27.820;2022-11-10T02:48:09;12.13;;;9.07;;
9904;SDS011;4991;43.566;27.820;2022-11-10T02:50:36;16.87;;;9.23;;
9904;SDS011;4991;43.566;27.820;2022-11-10T02:53:02;14.17;;;8.43;;
9904;SDS011;4991;43.566;27.820;2022-11-10T02:55:28;11.53;;;8.77;;
9904;SDS011;4991;43.566;27.820;2022-11-10T02:57:54;10.73;;;8.40;;
9904;SDS011;4991;43.566;27.820;2022-11-10T03:00:19;13.77;;;8.53;;
9904;SDS011;4991;43.566;27.820;2022-11-10T03:02:45;12.47;;;8.80;;
9904;SDS011;4991;43.566;27.820;2022-11-10T03:05:11;10.17;;;7.53;;
9904;SDS011;4991;43.566;27.820;2022-11-10T03:07:37;11.97;;;8.37;;
9904;SDS011;4991;43.566;27.820;2022-11-10T03:10:03;9.57;;;7.00;;
9904;SDS011;4991;43.566;27.820;2022-11-10T03:12:30;11.23;;;7.63;;
9904;SDS011;4991;43.566;27.820;2022-11-10T03:14:56;11.37;;;8.13;;
9904;SDS011;4991;43.566;27.820;2022-11-10T03:17:21;11.07;;;7.00;;
9904;SDS011;4991;43.566;27.820;2022-11-10T03:19:48;8.67;;;6.27;;
9904;SDS011;4991;43.566;27.820;2022-11-10T03:22:14;8.40;;;6.30;;
9904;SDS011;4991;43.566;27.820;2022-11-10T03:24:40;8.60;;;6.67;;
9904;SDS011;4991;43.566;27.820;2022-11-10T03:27:05;8.53;;;6.13;;
9904;SDS011;4991;43.566;27.820;2022-11-10T03:29:31;11.17;;;6.50;;
9904;SDS011;4991;43.566;27.820;2022-11-10T03:31:57;9.23;;;5.97;;
9904;SDS011;4991;43.566;27.820;2022-11-10T03:34:23;10.73;;;6.37;;
9904;SDS011;4991;43.566;27.820;2022-11-10T03:36:49;8.90;;;6.50;;
9904;SDS011;4991;43.566;27.820;2022-11-10T03:39:14;8.47;;;6.50;;
9904;SDS011;4991;43.566;27.820;2022-11-10T03:41:40;9.47;;;5.93;;
9904;SDS011;4991;43.566;27.820;2022-11-10T03:44:05;25.33;;;6.63;;
9904;SDS011;4991;43.566;27.820;2022-11-10T03:46:31;12.13;;;5.70;;
9904;SDS011;4991;43.566;27.820;2022-11-10T03:48:57;8.43;;;5.60;;
9904;SDS011;4991;43.566;27.820;2022-11-10T03:51:22;8.63;;;6.33;;
9904;SDS011;4991;43.566;27.820;2022-11-10T03:53:48;9.63;;;6.10;;
9904;SDS011;4991;43.566;27.820;2022-11-10T03:56:14;11.60;;;6.10;;
9904;SDS011;4991;43.566;27.820;2022-11-10T03:58:39;11.57;;;8.60;;
9904;SDS011;4991;43.566;27.820;2022-11-10T04:01:05;14.37;;;8.03;;
9904;SDS011;4991;43.566;27.820;2022-11-10T04:03:31;13.83;;;10.00;;
9904;SDS011;4991;43.566;27.820;2022-11-10T04:05:56;14.77;;;8.70;;
9904;SDS011;4991;43.566;27.820;2022-11-10T04:08:40;14.23;;;9.50;;
9904;SDS011;4991;43.566;27.820;2022-11-10T04:11:24;11.23;;;8.03;;
9904;SDS011;4991;43.566;27.820;2022-11-10T04:14:09;15.53;;;7.63;;
9904;SDS011;4991;43.566;27.820;2022-11-10T04:16:53;14.43;;;6.67;;
9904;SDS011;4991;43.566;27.820;2022-11-10T04:19:18;12.70;;;6.90;;
9904;SDS011;4991;43.566;27.820;2022-11-10T04:21:44;13.00;;;7.07;;
9904;SDS011;4991;43.566;27.820;2022-11-10T04:24:10;13.13;;;8.27;;
9904;SDS011;4991;43.566;27.820;2022-11-10T04:26:35;13.20;;;7.47;;
9904;SDS011;4991;43.566;27.820;2022-11-10T04:29:04;11.93;;;7.90;;
9904;SDS011;4991;43.566;27.820;2022-11-10T04:31:33;14.13;;;7.73;;
9904;SDS011;4991;43.566;27.820;2022-11-10T04:34:05;17.20;;;9.30;;
9904;SDS011;4991;43.566;27.820;2022-11-10T04:36:33;12.97;;;8.43;;
9904;SDS011;4991;43.566;27.820;2022-11-10T04:39:01;14.93;;;8.67;;
9904;SDS011;4991;43.566;27.820;2022-11-10T04:41:29;13.30;;;8.47;;
9904;SDS011;4991;43.566;27.820;2022-11-10T04:43:55;10.77;;;7.97;;
9904;SDS011;4991;43.566;27.820;2022-11-10T04:48:47;12.27;;;7.80;;
9904;SDS011;4991;43.566;27.820;2022-11-10T04:51:14;27.70;;;13.10;;
9904;SDS011;4991;43.566;27.820;2022-11-10T04:53:40;25.30;;;12.47;;
9904;SDS011;4991;43.566;27.820;2022-11-10T04:56:05;24.97;;;13.70;;
9904;SDS011;4991;43.566;27.820;2022-11-10T04:58:31;29.03;;;17.30;;
9904;SDS011;4991;43.566;27.820;2022-11-10T05:00:56;19.80;;;13.50;;
9904;SDS011;4991;43.566;27.820;2022-11-10T05:03:22;21.60;;;13.47;;
9904;SDS011;4991;43.566;27.820;2022-11-10T05:05:48;18.30;;;11.97;;
9904;SDS011;4991;43.566;27.820;2022-11-10T05:08:13;16.17;;;10.43;;
9904;SDS011;4991;43.566;27.820;2022-11-10T05:10:39;20.70;;;13.70;;
9904;SDS011;4991;43.566;27.820;2022-11-10T05:13:05;22.50;;;15.73;;
9904;SDS011;4991;43.566;27.820;2022-11-10T05:15:32;21.43;;;13.30;;
9904;SDS011;4991;43.566;27.820;2022-11-10T05:17:58;16.13;;;10.50;;
9904;SDS011;4991;43.566;27.820;2022-11-10T05:20:24;19.70;;;11.27;;
9904;SDS011;4991;43.566;27.820;2022-11-10T05:22:50;19.57;;;10.97;;
9904;SDS011;4991;43.566;27.820;2022-11-10T05:25:39;22.57;;;12.73;;
9904;SDS011;4991;43.566;27.820;2022-11-10T05:28:07;22.47;;;13.57;;
9904;SDS011;4991;43.566;27.820;2022-11-10T05:30:35;20.40;;;14.27;;
9904;SDS011;4991;43.566;27.820;2022-11-10T05:33:01;36.73;;;21.10;;
9904;SDS011;4991;43.566;27.820;2022-11-10T05:35:27;29.43;;;21.97;;
9904;SDS011;4991;43.566;27.820;2022-11-10T05:37:53;37.00;;;23.87;;
9904;SDS011;4991;43.566;27.820;2022-11-10T05:40:18;42.40;;;25.43;;
9904;SDS011;4991;43.566;27.820;2022-11-10T05:42:45;39.63;;;23.90;;
9904;SDS011;4991;43.566;27.820;2022-11-10T05:45:12;40.60;;;21.93;;
9904;SDS011;4991;43.566;27.820;2022-11-10T05:47:38;29.50;;;18.27;;
9904;SDS011;4991;43.566;27.820;2022-11-10T05:50:04;28.20;;;18.77;;
9904;SDS011;4991;43.566;27.820;2022-11-10T05:52:31;30.50;;;17.63;;
9904;SDS011;4991;43.566;27.820;2022-11-10T05:54:56;29.70;;;17.90;;
9904;SDS011;4991;43.566;27.820;2022-11-10T05:57:22;43.07;;;21.70;;
9904;SDS011;4991;43.566;27.820;2022-11-10T05:59:48;26.87;;;19.73;;
9904;SDS011;4991;43.566;27.820;2022-11-10T06:02:13;33.77;;;22.37;;
9904;SDS011;4991;43.566;27.820;2022-11-10T06:04:39;32.63;;;20.37;;
9904;SDS011;4991;43.566;27.820;2022-11-10T06:07:04;23.43;;;16.87;;
9904;SDS011;4991;43.566;27.820;2022-11-10T06:09:32;29.40;;;16.80;;
9904;SDS011;4991;43.566;27.820;2022-11-10T06:11:59;33.23;;;15.97;;
9904;SDS011;4991;43.566;27.820;2022-11-10T06:14:27;32.13;;;14.77;;
9904;SDS011;4991;43.566;27.820;2022-11-10T06:16:53;32.33;;;13.77;;
9904;SDS011;4991;43.566;27.820;2022-11-10T06:19:18;24.17;;;13.70;;
9904;SDS011;4991;43.566;27.820;2022-11-10T06:21:44;27.30;;;14.23;;
9904;SDS011;4991;43.566;27.820;2022-11-10T06:24:09;22.80;;;14.50;;
9904;SDS011;4991;43.566;27.820;2022-11-10T06:26:35;27.40;;;13.70;;
9904;SDS011;4991;43.566;27.820;2022-11-10T06:29:01;29.93;;;13.17;;
9904;SDS011;4991;43.566;27.820;2022-11-10T06:31:27;31.57;;;13.80;;
9904;SDS011;4991;43.566;27.820;2022-11-10T06:33:53;22.67;;;12.43;;
9904;SDS011;4991;43.566;27.820;2022-11-10T06:36:19;23.10;;;12.17;;
9904;SDS011;4991;43.566;27.820;2022-11-10T06:38:45;21.50;;;12.43;;
9904;SDS011;4991;43.566;27.820;2022-11-10T06:41:11;17.97;;;10.20;;
9904;SDS011;4991;43.566;27.820;2022-11-10T06:43:37;23.93;;;12.90;;
9904;SDS011;4991;43.566;27.820;2022-11-10T06:46:02;21.00;;;12.47;;
9904;SDS011;4991;43.566;27.820;2022-11-10T06:48:28;30.33;;;13.67;;
9904;SDS011;4991;43.566;27.820;2022-11-10T06:50:53;25.07;;;11.43;;
9904;SDS011;4991;43.566;27.820;2022-11-10T06:53:19;25.77;;;13.20;;
9904;SDS011;4991;43.566;27.820;2022-11-10T06:55:45;21.27;;;14.17;;
9904;SDS011;4991;43.566;27.820;2022-11-10T06:58:10;27.17;;;13.47;;
9904;SDS011;4991;43.566;27.820;2022-11-10T07:00:36;34.57;;;15.33;;
9904;SDS011;4991;43.566;27.820;2022-11-10T07:03:05;40.47;;;23.67;;
9904;SDS011;4991;43.566;27.820;2022-11-10T07:05:34;26.03;;;13.97;;
9904;SDS011;4991;43.566;27.820;2022-11-10T07:08:04;24.20;;;13.93;;
9904;SDS011;4991;43.566;27.820;2022-11-10T07:10:31;15.70;;;10.97;;
9904;SDS011;4991;43.566;27.820;2022-11-10T07:12:58;20.03;;;11.03;;
9904;SDS011;4991;43.566;27.820;2022-11-10T07:15:25;18.90;;;11.20;;
9904;SDS011;4991;43.566;27.820;2022-11-10T07:17:51;16.17;;;11.30;;
9904;SDS011;4991;43.566;27.820;2022-11-10T07:20:16;24.23;;;11.27;;
9904;SDS011;4991;43.566;27.820;2022-11-10T07:22:42;14.50;;;10.70;;
9904;SDS011;4991;43.566;27.820;2022-11-10T07:25:08;18.70;;;10.90;;
9904;SDS011;4991;43.566;27.820;2022-11-10T07:27:34;12.70;;;9.60;;
9904;SDS011;4991;43.566;27.820;2022-11-10T07:29:59;18.33;;;9.40;;
9904;SDS011;4991;43.566;27.820;2022-11-10T07:32:25;19.33;;;9.43;;
9904;SDS011;4991;43.566;27.820;2022-11-10T07:34:50;14.40;;;8.80;;
9904;SDS011;4991;43.566;27.820;2022-11-10T07:37:16;14.07;;;8.60;;
9904;SDS011;4991;43.566;27.820;2022-11-10T07:39:42;12.77;;;8.70;;
9904;SDS011;4991;43.566;27.820;2022-11-10T07:42:07;12.20;;;5.50;;
9904;SDS011;4991;43.566;27.820;2022-11-10T07:44:33;15.97;;;5.90;;
9904;SDS011;4991;43.566;27.820;2022-11-10T07:47:00;9.10;;;4.77;;
9904;SDS011;4991;43.566;27.820;2022-11-10T07:49:26;9.97;;;5.80;;
9904;SDS011;4991;43.566;27.820;2022-11-10T07:51:52;6.03;;;4.83;;
9904;SDS011;4991;43.566;27.820;2022-11-10T07:54:17;8.23;;;4.87;;
9904;SDS011;4991;43.566;27.820;2022-11-10T07:56:43;7.07;;;4.70;;
9904;SDS011;4991;43.566;27.820;2022-11-10T07:59:09;5.50;;;4.87;;
9904;SDS011;4991;43.566;27.820;2022-11-10T08:01:35;8.90;;;4.57;;
9904;SDS011;4991;43.566;27.820;2022-11-10T08:04:00;5.83;;;4.40;;
9904;SDS011;4991;43.566;27.820;2022-11-10T08:06:26;8.20;;;4.27;;
9904;SDS011;4991;43.566;27.820;2022-11-10T08:08:51;4.47;;;3.60;;
9904;SDS011;4991;43.566;27.820;2022-11-10T08:11:17;5.40;;;3.57;;
9904;SDS011;4991;43.566;27.820;2022-11-10T08:13:43;4.53;;;3.57;;
9904;SDS011;4991;43.566;27.820;2022-11-10T08:16:08;4.30;;;3.40;;
9904;SDS011;4991;43.566;27.820;2022-11-10T08:18:34;3.83;;;3.33;;
9904;SDS011;4991;43.566;27.820;2022-11-10T08:21:00;5.33;;;3.40;;
9904;SDS011;4991;43.566;27.820;2022-11-10T08:23:26;3.93;;;3.00;;
9904;SDS011;4991;43.566;27.820;2022-11-10T08:25:52;6.33;;;3.90;;
9904;SDS011;4991;43.566;27.820;2022-11-10T08:28:21;6.33;;;3.50;;
9904;SDS011;4991;43.566;27.820;2022-11-10T08:30:47;4.87;;;3.77;;
9904;SDS011;4991;43.566;27.820;2022-11-10T08:33:15;7.60;;;3.40;;
9904;SDS011;4991;43.566;27.820;2022-11-10T08:35:43;3.70;;;3.23;;
9904;SDS011;4991;43.566;27.820;2022-11-10T08:38:12;7.73;;;3.77;;
9904;SDS011;4991;43.566;27.820;2022-11-10T08:40:41;4.83;;;3.43;;
9904;SDS011;4991;43.566;27.820;2022-11-10T08:43:08;5.90;;;3.57;;
9904;SDS011;4991;43.566;27.820;2022-11-10T08:45:36;6.23;;;4.00;;
9904;SDS011;4991;43.566;27.820;2022-11-10T08:48:07;4.93;;;4.30;;
9904;SDS011;4991;43.566;27.820;2022-11-10T08:50:37;5.83;;;3.97;;
9904;SDS011;4991;43.566;27.820;2022-11-10T08:53:04;5.23;;;3.47;;
9904;SDS011;4991;43.566;27.820;2022-11-10T08:55:32;7.00;;;3.60;;
9904;SDS011;4991;43.566;27.820;2022-11-10T08:57:58;5.80;;;3.90;;
9904;SDS011;4991;43.566;27.820;2022-11-10T09:00:25;6.77;;;3.63;;
9904;SDS011;4991;43.566;27.820;2022-11-10T09:02:53;6.80;;;3.50;;
9904;SDS011;4991;43.566;27.820;2022-11-10T09:05:20;5.17;;;2.63;;
9904;SDS011;4991;43.566;27.820;2022-11-10T09:07:47;3.50;;;2.70;;
9904;SDS011;4991;43.566;27.820;2022-11-10T09:10:14;3.90;;;3.00;;
9904;SDS011;4991;43.566;27.820;2022-11-10T09:12:40;3.37;;;2.50;;
9904;SDS011;4991;43.566;27.820;2022-11-10T09:15:08;5.87;;;2.77;;
9904;SDS011;4991;43.566;27.820;2022-11-10T09:17:34;5.45;;;4.05;;
9904;SDS011;4991;43.566;27.820;2022-11-10T09:20:00;4.07;;;2.75;;
9904;SDS011;4991;43.566;27.820;2022-11-10T09:22:26;3.13;;;2.33;;
9904;SDS011;4991;43.566;27.820;2022-11-10T09:24:52;7.53;;;3.10;;
9904;SDS011;4991;43.566;27.820;2022-11-10T09:27:18;4.22;;;2.38;;
9904;SDS011;4991;43.566;27.820;2022-11-10T09:29:43;4.30;;;2.75;;
9904;SDS011;4991;43.566;27.820;2022-11-10T09:32:09;3.45;;;2.20;;
9904;SDS011;4991;43.566;27.820;2022-11-10T09:34:35;5.50;;;2.30;;
9904;SDS011;4991;43.566;27.820;2022-11-10T09:37:01;5.88;;;2.65;;
9904;SDS011;4991;43.566;27.820;2022-11-10T09:39:27;3.30;;;2.40;;
9904;SDS011;4991;43.566;27.820;2022-11-10T09:41:52;6.30;;;2.58;;
9904;SDS011;4991;43.566;27.820;2022-11-10T09:44:28;4.80;;;2.90;;
9904;SDS011;4991;43.566;27.820;2022-11-10T09:47:02;4.97;;;3.10;;
9904;SDS011;4991;43.566;27.820;2022-11-10T09:49:39;4.43;;;2.58;;
9904;SDS011;4991;43.566;27.820;2022-11-10T09:52:10;2.97;;;2.42;;
9904;SDS011;4991;43.566;27.820;2022-11-10T09:54:42;5.00;;;2.83;;
9904;SDS011;4991;43.566;27.820;2022-11-10T09:57:16;4.20;;;2.78;;
9904;SDS011;4991;43.566;27.820;2022-11-10T09:59:44;7.90;;;2.88;;
9904;SDS011;4991;43.566;27.820;2022-11-10T10:05:03;7.40;;;3.97;;
9904;SDS011;4991;43.566;27.820;2022-11-10T10:08:05;6.72;;;3.28;;
9904;SDS011;4991;43.566;27.820;2022-11-10T10:10:43;5.85;;;3.20;;
9904;SDS011;4991;43.566;27.820;2022-11-10T10:16:19;4.28;;;2.50;;
9904;SDS011;4991;43.566;27.820;2022-11-10T10:21:45;9.45;;;3.20;;
9904;SDS011;4991;43.566;27.820;2022-11-10T10:24:27;3.60;;;2.58;;
9904;SDS011;4991;43.566;27.820;2022-11-10T10:26:56;2.70;;;2.40;;
9904;SDS011;4991;43.566;27.820;2022-11-10T10:29:24;3.53;;;2.73;;
9904;SDS011;4991;43.566;27.820;2022-11-10T10:31:54;4.63;;;2.73;;
9904;SDS011;4991;43.566;27.820;2022-11-10T10:34:25;4.03;;;3.10;;
9904;SDS011;4991;43.566;27.820;2022-11-10T10:36:52;4.23;;;2.73;;
9904;SDS011;4991;43.566;27.820;2022-11-10T10:41:59;4.00;;;2.13;;
9904;SDS011;4991;43.566;27.820;2022-11-10T10:44:24;9.37;;;2.57;;
9904;SDS011;4991;43.566;27.820;2022-11-10T10:46:59;2.70;;;2.17;;
9904;SDS011;4991;43.566;27.820;2022-11-10T10:49:30;2.23;;;2.03;;
9904;SDS011;4991;43.566;27.820;2022-11-10T10:52:01;4.67;;;3.10;;
9904;SDS011;4991;43.566;27.820;2022-11-10T10:54:31;8.07;;;3.07;;
9904;SDS011;4991;43.566;27.820;2022-11-10T10:59:40;4.93;;;2.50;;
9904;SDS011;4991;43.566;27.820;2022-11-10T11:05:07;7.73;;;2.50;;
9904;SDS011;4991;43.566;27.820;2022-11-10T11:07:33;4.13;;;2.30;;
9904;SDS011;4991;43.566;27.820;2022-11-10T11:09:59;4.47;;;2.63;;
9904;SDS011;4991;43.566;27.820;2022-11-10T11:12:25;6.67;;;3.70;;
9904;SDS011;4991;43.566;27.820;2022-11-10T11:17:59;3.17;;;2.17;;
9904;SDS011;4991;43.566;27.820;2022-11-10T11:20:47;2.70;;;2.23;;
9904;SDS011;4991;43.566;27.820;2022-11-10T11:26:55;5.57;;;3.37;;
9904;SDS011;4991;43.566;27.820;2022-11-10T11:29:23;4.00;;;1.90;;
9904;SDS011;4991;43.566;27.820;2022-11-10T11:35:05;4.30;;;2.20;;
9904;SDS011;4991;43.566;27.820;2022-11-10T11:43:32;3.53;;;2.50;;
9904;SDS011;4991;43.566;27.820;2022-11-10T11:51:43;9.10;;;3.10;;
9904;SDS011;4991;43.566;27.820;2022-11-10T12:05:06;4.63;;;1.77;;
9904;SDS011;4991;43.566;27.820;2022-11-10T12:10:30;5.07;;;1.73;;
9904;SDS011;4991;43.566;27.820;2022-11-10T12:13:20;4.82;;;2.55;;
9904;SDS011;4991;43.566;27.820;2022-11-10T12:18:39;2.72;;;1.98;;
9904;SDS011;4991;43.566;27.820;2022-11-10T12:29:42;10.07;;;2.30;;
9904;SDS011;4991;43.566;27.820;2022-11-10T12:34:57;3.42;;;2.78;;
9904;SDS011;4991;43.566;27.820;2022-11-10T12:37:39;5.57;;;2.30;;
9904;SDS011;4991;43.566;27.820;2022-11-10T12:42:46;2.70;;;2.30;;
9904;SDS011;4991;43.566;27.820;2022-11-10T12:47:46;3.85;;;2.00;;
9904;SDS011;4991;43.566;27.820;2022-11-10T12:52:53;8.43;;;5.55;;
9904;SDS011;4991;43.566;27.820;2022-11-10T12:55:28;4.65;;;2.80;;
9904;SDS011;4991;43.566;27.820;2022-11-10T12:58:04;3.50;;;2.55;;
9904;SDS011;4991;43.566;27.820;2022-11-10T13:00:33;6.55;;;2.20;;
9904;SDS011;4991;43.566;27.820;2022-11-10T13:03:04;4.22;;;2.28;;
9904;SDS011;4991;43.566;27.820;2022-11-10T13:05:40;4.22;;;1.88;;
9904;SDS011;4991;43.566;27.820;2022-11-10T13:08:51;3.13;;;1.95;;
9904;SDS011;4991;43.566;27.820;2022-11-10T13:11:28;4.72;;;2.75;;
9904;SDS011;4991;43.566;27.820;2022-11-10T13:14:03;3.88;;;2.15;;
9904;SDS011;4991;43.566;27.820;2022-11-10T13:16:46;3.00;;;2.45;;
9904;SDS011;4991;43.566;27.820;2022-11-10T13:24:33;7.60;;;3.47;;
9904;SDS011;4991;43.566;27.820;2022-11-10T13:29:55;6.55;;;3.40;;
9904;SDS011;4991;43.566;27.820;2022-11-10T13:32:23;3.42;;;2.70;;
9904;SDS011;4991;43.566;27.820;2022-11-10T13:34:51;2.60;;;2.40;;
9904;SDS011;4991;43.566;27.820;2022-11-10T13:40:32;3.38;;;2.70;;
9904;SDS011;4991;43.566;27.820;2022-11-10T13:45:34;8.82;;;3.08;;
9904;SDS011;4991;43.566;27.820;2022-11-10T13:58:42;5.68;;;3.72;;
9904;SDS011;4991;43.566;27.820;2022-11-10T14:12:04;8.57;;;4.97;;
9904;SDS011;4991;43.566;27.820;2022-11-10T14:15:01;5.73;;;3.80;;
9904;SDS011;4991;43.566;27.820;2022-11-10T14:17:51;7.53;;;5.03;;
9904;SDS011;4991;43.566;27.820;2022-11-10T14:20:20;12.30;;;5.33;;
9904;SDS011;4991;43.566;27.820;2022-11-10T14:22:46;8.23;;;4.37;;
9904;SDS011;4991;43.566;27.820;2022-11-10T14:28:01;6.27;;;4.17;;
9904;SDS011;4991;43.566;27.820;2022-11-10T14:30:30;4.60;;;3.10;;
9904;SDS011;4991;43.566;27.820;2022-11-10T14:33:30;4.57;;;3.53;;
9904;SDS011;4991;43.566;27.820;2022-11-10T14:35:50;4.03;;;3.00;;
9904;SDS011;4991;43.566;27.820;2022-11-10T14:40:49;5.67;;;3.40;;
9904;SDS011;4991;43.566;27.820;2022-11-10T14:43:25;6.50;;;4.50;;
9904;SDS011;4991;43.566;27.820;2022-11-10T14:45:56;8.00;;;4.10;;
9904;SDS011;4991;43.566;27.820;2022-11-10T14:48:24;6.73;;;5.47;;
9904;SDS011;4991;43.566;27.820;2022-11-10T14:50:52;7.37;;;3.73;;
9904;SDS011;4991;43.566;27.820;2022-11-10T14:53:28;9.23;;;3.70;;
9904;SDS011;4991;43.566;27.820;2022-11-10T14:55:58;4.83;;;3.37;;
9904;SDS011;4991;43.566;27.820;2022-11-10T14:58:32;5.33;;;4.67;;
9904;SDS011;4991;43.566;27.820;2022-11-10T15:01:01;4.67;;;3.80;;
9904;SDS011;4991;43.566;27.820;2022-11-10T15:05:57;4.77;;;4.27;;
9904;SDS011;4991;43.566;27.820;2022-11-10T15:08:24;5.17;;;3.87;;
9904;SDS011;4991;43.566;27.820;2022-11-10T15:10:51;5.60;;;4.10;;
9904;SDS011;4991;43.566;27.820;2022-11-10T15:16:37;7.57;;;4.20;;
9904;SDS011;4991;43.566;27.820;2022-11-10T15:18:47;7.63;;;5.10;;
9904;SDS011;4991;43.566;27.820;2022-11-10T15:21:18;9.50;;;5.83;;
9904;SDS011;4991;43.566;27.820;2022-11-10T15:23:46;6.40;;;4.80;;
9904;SDS011;4991;43.566;27.820;2022-11-10T15:26:22;8.17;;;5.83;;
9904;SDS011;4991;43.566;27.820;2022-11-10T15:28:49;10.07;;;5.43;;
9904;SDS011;4991;43.566;27.820;2022-11-10T15:31:26;8.13;;;5.20;;
9904;SDS011;4991;43.566;27.820;2022-11-10T15:33:54;10.93;;;6.40;;
9904;SDS011;4991;43.566;27.820;2022-11-10T15:36:29;16.30;;;7.93;;
9904;SDS011;4991;43.566;27.820;2022-11-10T15:39:01;11.17;;;6.77;;
9904;SDS011;4991;43.566;27.820;2022-11-10T15:41:28;12.43;;;5.87;;
9904;SDS011;4991;43.566;27.820;2022-11-10T15:43:55;10.23;;;6.30;;
9904;SDS011;4991;43.566;27.820;2022-11-10T15:46:22;9.87;;;6.50;;
9904;SDS011;4991;43.566;27.820;2022-11-10T15:48:50;12.07;;;6.37;;
9904;SDS011;4991;43.566;27.820;2022-11-10T15:51:17;10.13;;;5.80;;
9904;SDS011;4991;43.566;27.820;2022-11-10T15:53:45;10.87;;;7.67;;
9904;SDS011;4991;43.566;27.820;2022-11-10T15:56:13;18.13;;;10.73;;
9904;SDS011;4991;43.566;27.820;2022-11-10T15:58:50;13.90;;;9.37;;
9904;SDS011;4991;43.566;27.820;2022-11-10T16:01:18;24.90;;;16.83;;
9904;SDS011;4991;43.566;27.820;2022-11-10T16:03:44;13.23;;;7.80;;
9904;SDS011;4991;43.566;27.820;2022-11-10T16:06:12;9.73;;;7.30;;
9904;SDS011;4991;43.566;27.820;2022-11-10T16:08:38;13.70;;;10.73;;
9904;SDS011;4991;43.566;27.820;2022-11-10T16:11:06;11.77;;;6.90;;
9904;SDS011;4991;43.566;27.820;2022-11-10T16:13:37;14.07;;;7.57;;
9904;SDS011;4991;43.566;27.820;2022-11-10T16:16:04;13.20;;;7.30;;
9904;SDS011;4991;43.566;27.820;2022-11-10T16:18:30;13.87;;;8.17;;
9904;SDS011;4991;43.566;27.820;2022-11-10T16:20:56;9.80;;;7.77;;
9904;SDS011;4991;43.566;27.820;2022-11-10T16:23:22;7.90;;;6.37;;
9904;SDS011;4991;43.566;27.820;2022-11-10T16:25:49;10.83;;;7.63;;
9904;SDS011;4991;43.566;27.820;2022-11-10T16:28:19;8.83;;;7.37;;
9904;SDS011;4991;43.566;27.820;2022-11-10T16:30:50;8.17;;;7.27;;
9904;SDS011;4991;43.566;27.820;2022-11-10T16:33:18;11.07;;;8.20;;
9904;SDS011;4991;43.566;27.820;2022-11-10T16:35:50;12.90;;;9.60;;
9904;SDS011;4991;43.566;27.820;2022-11-10T16:40:53;10.20;;;7.50;;
9904;SDS011;4991;43.566;27.820;2022-11-10T16:43:22;9.13;;;6.63;;
9904;SDS011;4991;43.566;27.820;2022-11-10T16:45:49;10.13;;;8.13;;
9904;SDS011;4991;43.566;27.820;2022-11-10T16:48:23;13.50;;;9.57;;
9904;SDS011;4991;43.566;27.820;2022-11-10T16:50:53;10.33;;;8.37;;
9904;SDS011;4991;43.566;27.820;2022-11-10T16:53:23;11.00;;;8.93;;
9904;SDS011;4991;43.566;27.820;2022-11-10T16:55:52;10.50;;;8.30;;
9904;SDS011;4991;43.566;27.820;2022-11-10T16:58:17;10.87;;;7.57;;
9904;SDS011;4991;43.566;27.820;2022-11-10T17:00:43;18.80;;;9.17;;
9904;SDS011;4991;43.566;27.820;2022-11-10T17:05:46;10.10;;;6.20;;
9904;SDS011;4991;43.566;27.820;2022-11-10T17:11:10;10.30;;;6.67;;
9904;SDS011;4991;43.566;27.820;2022-11-10T17:13:36;10.80;;;7.03;;